createdAt,value
2019-01-13T00:02:21.180Z,100456.32
2019-01-13T00:04:48.443Z,100457.63
2019-01-13T00:07:15.650Z,100462.36
2019-01-13T00:09:42.964Z,100462.36
2019-01-13T00:12:10.160Z,100468.50
2019-01-13T00:14:37.361Z,100449.38
2019-01-13T00:17:04.589Z,100449.38
2019-01-13T00:19:31.754Z,100450.31
2019-01-13T00:21:59.030Z,100450.31
2019-01-13T00:24:26.240Z,100453.70
2019-01-13T00:26:53.581Z,100453.70
2019-01-13T00:29:20.769Z,100439.38
2019-01-13T00:31:48.033Z,100439.38
2019-01-13T00:34:15.231Z,100445.48
2019-01-13T00:36:42.578Z,100445.48
2019-01-13T00:39:09.822Z,100431.91
2019-01-13T00:41:37.021Z,100431.50
2019-01-13T00:44:04.302Z,100432.03
2019-01-13T00:46:31.526Z,100428.57
2019-01-13T00:48:58.847Z,100432.80
2019-01-13T00:51:26.027Z,100425.86
2019-01-13T00:53:53.216Z,100425.86
2019-01-13T00:56:20.459Z,100422.38
2019-01-13T00:58:47.690Z,100422.38
2019-01-13T01:01:14.931Z,100415.46
2019-01-13T01:03:42.137Z,100415.83
2019-01-13T01:06:09.426Z,100408.83
2019-01-13T01:08:36.638Z,100417.98
2019-01-13T01:11:03.848Z,100404.80
2019-01-13T01:13:31.087Z,100404.80
2019-01-13T01:15:58.353Z,100403.49
2019-01-13T01:18:25.579Z,100401.75
2019-01-13T01:20:52.801Z,100400.07
2019-01-13T01:23:21.118Z,100404.40
2019-01-13T01:25:48.338Z,100390.01
2019-01-13T01:28:15.574Z,100391.25
2019-01-13T01:30:42.918Z,100391.25
2019-01-13T01:33:10.159Z,100387.02
2019-01-13T01:35:37.473Z,100387.02
2019-01-13T01:38:04.690Z,100379.95
2019-01-13T01:40:31.912Z,100383.06
2019-01-13T01:42:59.210Z,100383.06
2019-01-13T01:45:26.392Z,100385.25
2019-01-13T01:47:53.621Z,100391.78
2019-01-13T01:50:20.859Z,100388.27
2019-01-13T01:52:48.066Z,100391.25
2019-01-13T01:55:17.014Z,100386.92
2019-01-13T01:57:44.395Z,100383.44
2019-01-13T02:00:16.584Z,100383.44
2019-01-13T02:02:43.754Z,100392.53
2019-01-13T02:05:10.995Z,100384.23
2019-01-13T02:07:38.211Z,100372.16
2019-01-13T02:10:08.029Z,100382.63
2019-01-13T02:12:35.245Z,100375.19
2019-01-13T02:15:03.690Z,100378.61
2019-01-13T02:17:30.863Z,100385.55
2019-01-13T02:19:58.122Z,100369.02
2019-01-13T02:22:25.319Z,100367.30
2019-01-13T02:24:52.571Z,100362.06
2019-01-13T02:27:19.768Z,100362.06
2019-01-13T02:29:47.100Z,100378.61
2019-01-13T02:32:14.311Z,100387.33
2019-01-13T02:34:41.502Z,100379.87
2019-01-13T02:37:08.759Z,100379.87
2019-01-13T02:39:35.988Z,100374.21
2019-01-13T02:42:03.232Z,100384.24
2019-01-13T02:44:30.422Z,100374.68
2019-01-13T02:46:57.641Z,100374.68
2019-01-13T02:49:24.886Z,100367.70
2019-01-13T02:51:52.135Z,100367.70
2019-01-13T02:54:19.345Z,100376.39
2019-01-13T02:56:46.586Z,100370.76
2019-01-13T02:59:13.832Z,100370.76
2019-01-13T03:01:40.998Z,100365.05
2019-01-13T03:04:08.239Z,100359.31
2019-01-13T03:06:35.460Z,100359.31
2019-01-13T03:09:04.543Z,100358.55
2019-01-13T03:11:31.758Z,100353.75
2019-01-13T03:13:58.969Z,100353.28
2019-01-13T03:16:26.185Z,100353.28
2019-01-13T03:18:53.424Z,100351.53
2019-01-13T03:21:20.694Z,100334.63
2019-01-13T03:23:47.896Z,100349.39
2019-01-13T03:26:15.123Z,100349.39
2019-01-13T03:28:42.326Z,100337.14
2019-01-13T03:31:12.092Z,100334.42
2019-01-13T03:33:38.658Z,100334.42
2019-01-13T03:36:05.842Z,100331.80
2019-01-13T03:38:33.099Z,100329.73
2019-01-13T03:41:00.281Z,100322.75
2019-01-13T03:43:27.553Z,100315.34
2019-01-13T03:45:54.766Z,100309.60
2019-01-13T03:48:21.985Z,100309.60
2019-01-13T03:50:49.227Z,100305.67
2019-01-13T03:53:16.406Z,100305.67
2019-01-13T03:55:43.743Z,100290.84
2019-01-13T03:58:11.279Z,100284.81
2019-01-13T04:00:38.524Z,100285.25
2019-01-13T04:03:05.745Z,100274.42
2019-01-13T04:05:33.061Z,100274.42
2019-01-13T04:08:00.260Z,100268.24
2019-01-13T04:10:27.429Z,100266.50
2019-01-13T04:12:54.654Z,100277.44
2019-01-13T04:15:59.551Z,100277.44
2019-01-13T04:18:26.832Z,100266.64
2019-01-13T04:20:54.080Z,100268.49
2019-01-13T04:23:21.333Z,100268.49
2019-01-13T04:25:48.578Z,100261.05
2019-01-13T04:28:15.825Z,100252.33
2019-01-13T04:30:43.039Z,100248.00
2019-01-13T04:33:10.264Z,100255.67
2019-01-13T04:35:37.444Z,100255.67
2019-01-13T04:38:04.665Z,100255.56
2019-01-13T04:40:31.914Z,100255.56
2019-01-13T04:42:59.095Z,100241.45
2019-01-13T04:45:26.315Z,100241.45
2019-01-13T04:47:53.507Z,100233.14
2019-01-13T04:50:20.723Z,100226.59
2019-01-13T04:52:47.975Z,100218.67
2019-01-13T04:55:15.195Z,100218.67
2019-01-13T04:57:42.419Z,100218.99
2019-01-13T05:00:12.757Z,100217.69
2019-01-13T05:02:40.005Z,100203.69
2019-01-13T05:05:07.713Z,100205.51
2019-01-13T05:07:34.985Z,100205.51
2019-01-13T05:10:02.346Z,100196.28
2019-01-13T05:12:29.579Z,100206.31
2019-01-13T05:14:56.815Z,100203.25
2019-01-13T05:17:24.062Z,100196.64
2019-01-13T05:19:51.277Z,100196.64
2019-01-13T05:22:18.499Z,100207.03
2019-01-13T05:24:45.697Z,100191.00
2019-01-13T05:27:12.906Z,100189.62
2019-01-13T05:29:40.080Z,100185.14
2019-01-13T05:32:07.289Z,100183.44
2019-01-13T05:34:34.517Z,100186.48
2019-01-13T05:37:01.783Z,100179.59
2019-01-13T05:39:29.001Z,100161.27
2019-01-13T05:41:56.241Z,100152.66
2019-01-13T05:44:23.463Z,100152.66
2019-01-13T05:46:50.754Z,100142.51
2019-01-13T05:49:17.983Z,100123.52
2019-01-13T05:51:45.260Z,100123.52
2019-01-13T05:54:12.513Z,100116.42
2019-01-13T05:56:39.719Z,100109.80
2019-01-13T05:59:06.981Z,100108.33
2019-01-13T06:01:34.291Z,100108.33
2019-01-13T06:04:01.487Z,100098.33
2019-01-13T06:06:28.770Z,100101.30
2019-01-13T06:08:55.995Z,100095.20
2019-01-13T06:11:23.237Z,100087.30
2019-01-13T06:13:50.427Z,100072.95
2019-01-13T06:16:17.640Z,100078.61
2019-01-13T06:18:44.852Z,100057.84
2019-01-13T06:21:12.028Z,100057.84
2019-01-13T06:23:39.263Z,100037.07
2019-01-13T06:26:06.593Z,100039.12
2019-01-13T06:28:33.774Z,100028.06
2019-01-13T06:31:00.961Z,100024.58
2019-01-13T06:33:28.214Z,100024.58
2019-01-13T06:35:55.405Z,100010.65
2019-01-13T06:38:22.625Z,100002.59
2019-01-13T06:40:49.826Z,100000.67
2019-01-13T06:43:17.207Z,100000.67
2019-01-13T06:45:44.355Z,99996.83
2019-01-13T06:48:11.555Z,99996.75
2019-01-13T06:50:38.826Z,99981.95
2019-01-13T06:53:06.045Z,99976.77
2019-01-13T06:55:33.219Z,99967.12
2019-01-13T06:58:00.409Z,99967.12
2019-01-13T07:00:27.698Z,99958.87
2019-01-13T07:02:55.075Z,99959.75
2019-01-13T07:05:22.388Z,99955.78
2019-01-13T07:07:49.628Z,99952.33
2019-01-13T07:10:16.932Z,99931.48
2019-01-13T07:12:44.127Z,99940.89
2019-01-13T07:15:12.569Z,99932.91
2019-01-13T07:17:39.775Z,99926.94
2019-01-13T07:20:09.211Z,99918.59
2019-01-13T07:22:36.400Z,99908.56
2019-01-13T07:25:04.225Z,99901.50
2019-01-13T07:27:31.446Z,99898.39
2019-01-13T07:29:58.660Z,99904.12
2019-01-13T07:32:25.833Z,99889.72
2019-01-13T07:34:53.106Z,99889.38
2019-01-13T07:37:20.307Z,99886.27
2019-01-13T07:39:47.547Z,99872.66
2019-01-13T07:42:14.766Z,99863.97
2019-01-13T07:44:41.986Z,99866.45
2019-01-13T07:47:09.220Z,99859.47
2019-01-13T07:49:36.441Z,99858.95
2019-01-13T07:52:03.700Z,99852.48
2019-01-13T07:54:30.899Z,99841.20
2019-01-13T07:56:58.139Z,99841.59
2019-01-13T07:59:25.352Z,99839.02
2019-01-13T08:01:52.595Z,99826.11
2019-01-13T08:04:19.845Z,99826.11
2019-01-13T08:06:47.063Z,99820.25
2019-01-13T08:09:14.295Z,99815.41
2019-01-13T08:11:41.510Z,99815.41
2019-01-13T08:14:08.730Z,99804.94
2019-01-13T08:16:35.905Z,99792.38
2019-01-13T08:19:03.195Z,99798.44
2019-01-13T08:21:30.436Z,99786.61
2019-01-13T08:23:57.664Z,99783.99
2019-01-13T08:26:24.845Z,99779.97
2019-01-13T08:28:52.062Z,99775.25
2019-01-13T08:31:19.266Z,99767.84
2019-01-13T08:33:46.447Z,99773.03
2019-01-13T08:36:13.766Z,99757.37
2019-01-13T08:38:41.002Z,99759.13
2019-01-13T08:41:08.263Z,99752.19
2019-01-13T08:43:35.480Z,99749.17
2019-01-13T08:46:02.750Z,99746.03
2019-01-13T08:48:29.955Z,99732.94
2019-01-13T08:50:57.212Z,99731.14
2019-01-13T08:53:24.476Z,99723.78
2019-01-13T08:55:51.884Z,99713.84
2019-01-13T08:58:19.096Z,99713.84
2019-01-13T09:00:46.294Z,99722.37
2019-01-13T09:03:13.540Z,99711.95
2019-01-13T09:05:40.759Z,99715.44
2019-01-13T09:08:07.935Z,99709.33
2019-01-13T09:10:35.220Z,99701.09
2019-01-13T09:13:02.432Z,99698.52
2019-01-13T09:15:29.674Z,99695.62
2019-01-13T09:17:56.882Z,99687.13
2019-01-13T09:20:28.579Z,99686.25
2019-01-13T09:22:56.931Z,99686.25
2019-01-13T09:25:24.143Z,99672.01
2019-01-13T09:27:51.352Z,99671.84
2019-01-13T09:30:23.366Z,99678.84
2019-01-13T09:32:50.590Z,99674.09
2019-01-13T09:35:17.812Z,99666.37
2019-01-13T09:37:45.059Z,99674.09
2019-01-13T09:40:14.243Z,99654.42
2019-01-13T09:42:41.481Z,99660.75
2019-01-13T09:45:09.404Z,99660.75
2019-01-13T09:47:36.675Z,99663.18
2019-01-13T09:50:05.088Z,99649.17
2019-01-13T09:52:32.287Z,99649.17
2019-01-13T09:54:59.607Z,99641.91
2019-01-13T09:57:26.809Z,99638.26
2019-01-13T09:59:53.995Z,99638.26
2019-01-13T10:02:21.445Z,99642.08
2019-01-13T10:04:48.698Z,99639.52
2019-01-13T10:07:16.021Z,99633.47
2019-01-13T10:09:43.253Z,99628.17
2019-01-13T10:12:10.449Z,99614.75
2019-01-13T10:14:37.654Z,99631.27
2019-01-13T10:17:04.919Z,99628.66
2019-01-13T10:19:32.100Z,99616.78
2019-01-13T10:21:59.337Z,99612.80
2019-01-13T10:24:26.574Z,99612.80
2019-01-13T10:26:53.797Z,99598.60
2019-01-13T10:29:21.038Z,99601.02
2019-01-13T10:31:48.254Z,99604.56
2019-01-13T10:34:15.442Z,99598.34
2019-01-13T10:36:42.670Z,99595.29
2019-01-13T10:39:09.831Z,99578.66
2019-01-13T10:41:37.058Z,99571.67
2019-01-13T10:44:04.273Z,99573.42
2019-01-13T10:46:31.464Z,99566.02
2019-01-13T10:48:58.829Z,99565.56
2019-01-13T10:51:26.027Z,99555.88
2019-01-13T10:53:53.208Z,99553.40
2019-01-13T10:56:20.455Z,99555.54
2019-01-13T10:58:47.652Z,99540.70
2019-01-13T11:01:14.838Z,99541.56
2019-01-13T11:03:42.064Z,99533.23
2019-01-13T11:06:09.275Z,99532.19
2019-01-13T11:08:36.498Z,99532.19
2019-01-13T11:11:03.731Z,99529.95
2019-01-13T11:13:30.923Z,99532.03
2019-01-13T11:15:58.107Z,99524.99
2019-01-13T11:18:25.319Z,99519.37
2019-01-13T11:20:52.688Z,99526.80
2019-01-13T11:23:19.886Z,99518.55
2019-01-13T11:25:47.082Z,99524.66
2019-01-13T11:28:14.389Z,99512.40
2019-01-13T11:30:41.543Z,99507.97
2019-01-13T11:33:09.714Z,99513.71
2019-01-13T11:35:37.284Z,99508.36
2019-01-13T11:38:04.667Z,99501.81
2019-01-13T11:40:31.862Z,99504.43
2019-01-13T11:42:59.085Z,99489.59
2019-01-13T11:45:26.317Z,99494.44
2019-01-13T11:47:53.668Z,99491.40
2019-01-13T11:50:21.612Z,99486.22
2019-01-13T11:52:48.939Z,99476.17
2019-01-13T11:55:16.301Z,99469.30
2019-01-13T11:57:43.520Z,99458.73
2019-01-13T12:00:19.525Z,99458.62
2019-01-13T12:02:46.721Z,99459.92
2019-01-13T12:05:14.314Z,99449.19
2019-01-13T12:07:42.427Z,99444.42
2019-01-13T12:10:11.603Z,99433.80
2019-01-13T12:12:38.898Z,99423.48
2019-01-13T12:15:08.981Z,99423.48
2019-01-13T12:17:36.203Z,99423.16
2019-01-13T12:20:04.245Z,99400.81
2019-01-13T12:22:31.502Z,99397.95
2019-01-13T12:24:58.682Z,99397.95
2019-01-13T12:27:25.967Z,99391.80
2019-01-13T12:29:53.174Z,99380.73
2019-01-13T12:32:20.414Z,99380.73
2019-01-13T12:34:47.621Z,99387.61
2019-01-13T12:37:14.842Z,99374.07
2019-01-13T12:39:42.086Z,99364.84
2019-01-13T12:42:09.297Z,99368.23
2019-01-13T12:44:36.669Z,99359.14
2019-01-13T12:47:03.883Z,99353.90
2019-01-13T12:49:31.119Z,99349.52
2019-01-13T12:51:58.497Z,99332.45
2019-01-13T12:54:25.696Z,99318.31
2019-01-13T12:56:52.871Z,99313.45
2019-01-13T12:59:20.095Z,99314.61
2019-01-13T13:01:47.300Z,99308.54
2019-01-13T13:04:14.483Z,99308.86
2019-01-13T13:06:41.731Z,99313.72
2019-01-13T13:09:09.019Z,99298.32
2019-01-13T13:11:36.489Z,99294.02
2019-01-13T13:14:03.697Z,99286.34
2019-01-13T13:16:30.886Z,99298.83
2019-01-13T13:18:58.115Z,99295.39
2019-01-13T13:21:25.331Z,99298.00
2019-01-13T13:23:52.573Z,99286.98
2019-01-13T13:26:19.805Z,99258.92
2019-01-13T13:28:47.045Z,99273.06
2019-01-13T13:31:14.280Z,99269.04
2019-01-13T13:33:41.528Z,99269.04
2019-01-13T13:36:10.635Z,99255.63
2019-01-13T13:38:37.878Z,99255.63
2019-01-13T13:41:05.098Z,99247.39
2019-01-13T13:43:31.960Z,99248.83
2019-01-13T13:45:59.855Z,99248.83
2019-01-13T13:48:27.034Z,99241.84
2019-01-13T13:50:54.308Z,99236.16
2019-01-13T13:53:21.533Z,99236.16
2019-01-13T13:55:48.752Z,99240.53
2019-01-13T13:58:15.958Z,99223.26
2019-01-13T14:00:43.149Z,99201.80
2019-01-13T14:03:10.402Z,99188.53
2019-01-13T14:05:37.657Z,99186.00
2019-01-13T14:08:05.510Z,99170.83
2019-01-13T14:10:40.730Z,99177.13
2019-01-13T14:13:08.058Z,99164.90
2019-01-13T14:15:35.265Z,99167.58
2019-01-13T14:18:02.495Z,99155.33
2019-01-13T14:20:29.757Z,99146.64
2019-01-13T14:22:56.979Z,99140.23
2019-01-13T14:25:24.219Z,99163.92
2019-01-13T14:27:51.371Z,99163.92
2019-01-13T14:30:23.654Z,99160.09
2019-01-13T14:32:50.876Z,99160.09
2019-01-13T14:35:18.222Z,99142.59
2019-01-13T14:37:45.430Z,99142.59
2019-01-13T14:40:15.125Z,99143.97
2019-01-13T14:42:42.370Z,99124.89
2019-01-13T14:45:12.476Z,99124.89
2019-01-13T14:47:39.712Z,99151.98
2019-01-13T14:50:09.323Z,99141.65
2019-01-13T14:52:36.665Z,99147.27
2019-01-13T14:55:04.278Z,99155.66
2019-01-13T14:57:31.477Z,99139.16
2019-01-13T14:59:58.740Z,99130.55
2019-01-13T15:02:25.975Z,99130.55
2019-01-13T15:04:53.207Z,99127.45
2019-01-13T15:07:20.370Z,99123.94
2019-01-13T15:09:47.664Z,99123.63
2019-01-13T15:12:14.855Z,99105.70
2019-01-13T15:14:42.093Z,99128.06
2019-01-13T15:17:09.425Z,99113.16
2019-01-13T15:19:36.666Z,99113.42
2019-01-13T15:22:03.948Z,99108.82
2019-01-13T15:24:31.164Z,99104.64
2019-01-13T15:26:58.384Z,99104.64
2019-01-13T15:29:25.643Z,99097.05
2019-01-13T15:31:52.843Z,99097.05
2019-01-13T15:34:20.083Z,99102.59
2019-01-13T15:36:47.315Z,99101.13
2019-01-13T15:39:14.621Z,99101.13
2019-01-13T15:41:41.846Z,99103.14
2019-01-13T15:44:09.046Z,99103.14
2019-01-13T15:46:36.271Z,99098.03
2019-01-13T15:49:03.607Z,99093.93
2019-01-13T15:51:30.899Z,99093.93
2019-01-13T15:53:58.102Z,99118.72
2019-01-13T15:56:25.317Z,99100.09
2019-01-13T15:58:52.566Z,99100.09
2019-01-13T16:01:19.817Z,99108.06
2019-01-13T16:03:47.028Z,99106.02
2019-01-13T16:06:14.270Z,99106.02
2019-01-13T16:08:41.481Z,99104.64
2019-01-13T16:11:08.726Z,99103.34
2019-01-13T16:13:35.994Z,99101.78
2019-01-13T16:16:03.174Z,99101.78
2019-01-13T16:18:30.414Z,99096.77
2019-01-13T16:20:57.661Z,99102.70
2019-01-13T16:23:24.889Z,99095.65
2019-01-13T16:25:52.105Z,99083.22
2019-01-13T16:28:19.349Z,99095.05
2019-01-13T16:30:46.562Z,99095.05
2019-01-13T16:33:13.790Z,99090.32
2019-01-13T16:35:41.117Z,99077.16
2019-01-13T16:38:08.378Z,99072.98
2019-01-13T16:40:35.598Z,99072.98
2019-01-13T16:43:02.936Z,99096.23
2019-01-13T16:45:30.127Z,99074.41
2019-01-13T16:47:57.331Z,99066.75
2019-01-13T16:50:25.689Z,99073.61
2019-01-13T16:52:56.874Z,99073.61
2019-01-13T16:55:25.171Z,99080.02
2019-01-13T16:57:52.453Z,99077.98
2019-01-13T17:00:21.470Z,99088.92
2019-01-13T17:02:48.667Z,99088.92
2019-01-13T17:05:17.119Z,99086.69
2019-01-13T17:07:44.287Z,99085.61
2019-01-13T17:10:13.752Z,99082.52
2019-01-13T17:12:40.968Z,99099.66
2019-01-13T17:15:09.611Z,99089.60
2019-01-13T17:17:36.978Z,99089.60
2019-01-13T17:20:06.143Z,99090.11
2019-01-13T17:22:33.329Z,99099.27
2019-01-13T17:25:00.557Z,99099.27
2019-01-13T17:27:27.766Z,99092.59
2019-01-13T17:29:54.973Z,99090.97
2019-01-13T17:32:22.165Z,99091.80
2019-01-13T17:34:49.393Z,99090.97
2019-01-13T17:37:16.629Z,99090.97
2019-01-13T17:39:43.832Z,99090.84
2019-01-13T17:42:11.164Z,99068.55
2019-01-13T17:44:38.373Z,99080.52
2019-01-13T17:47:05.565Z,99080.52
2019-01-13T17:49:32.809Z,99079.27
2019-01-13T17:52:00.037Z,99074.04
2019-01-13T17:54:27.256Z,99075.41
2019-01-13T17:56:54.495Z,99085.81
2019-01-13T17:59:21.714Z,99088.80
2019-01-13T18:01:52.910Z,99082.50
2019-01-13T18:04:20.099Z,99082.50
2019-01-13T18:06:47.262Z,99082.88
2019-01-13T18:09:14.520Z,99094.27
2019-01-13T18:11:41.694Z,99088.97
2019-01-13T18:14:08.951Z,99090.63
2019-01-13T18:16:36.167Z,99087.80
2019-01-13T18:19:03.356Z,99087.80
2019-01-13T18:21:30.627Z,99096.95
2019-01-13T18:23:57.824Z,99096.95
2019-01-13T18:26:25.085Z,99105.11
2019-01-13T18:28:52.290Z,99111.33
2019-01-13T18:31:19.461Z,99107.73
2019-01-13T18:33:46.659Z,99103.07
2019-01-13T18:36:13.879Z,99100.68
2019-01-13T18:38:41.080Z,99100.68
2019-01-13T18:41:08.311Z,99106.48
2019-01-13T18:43:35.553Z,99118.19
2019-01-13T18:46:02.788Z,99118.19
2019-01-13T18:48:30.023Z,99113.79
2019-01-13T18:50:57.243Z,99113.79
2019-01-13T18:53:24.495Z,99121.19
2019-01-13T18:55:51.738Z,99119.95
2019-01-13T18:58:18.972Z,99119.95
2019-01-13T19:00:46.223Z,99130.79
2019-01-13T19:03:13.461Z,99130.77
2019-01-13T19:05:40.659Z,99142.09
2019-01-13T19:08:07.865Z,99126.04
2019-01-13T19:10:59.684Z,99132.95
2019-01-13T19:14:16.353Z,99132.58
2019-01-13T19:17:08.870Z,99132.58
2019-01-13T19:19:45.841Z,99136.95
2019-01-13T19:22:13.005Z,99137.01
2019-01-13T19:24:40.263Z,99144.22
2019-01-13T19:27:07.434Z,99141.09
2019-01-13T19:29:34.880Z,99141.73
2019-01-13T19:32:02.114Z,99149.48
2019-01-13T19:34:29.318Z,99149.48
2019-01-13T19:36:56.524Z,99126.04
2019-01-13T19:39:23.774Z,99134.17
2019-01-13T19:41:51.196Z,99134.17
2019-01-13T19:44:18.438Z,99138.09
2019-01-13T19:46:45.766Z,99153.80
2019-01-13T19:49:12.993Z,99148.63
2019-01-13T19:51:40.192Z,99148.63
2019-01-13T19:54:07.462Z,99152.98
2019-01-13T19:56:34.682Z,99177.55
2019-01-13T19:59:01.968Z,99177.55
2019-01-13T20:01:29.209Z,99163.83
2019-01-13T20:03:56.646Z,99179.20
2019-01-13T20:06:23.833Z,99179.20
2019-01-13T20:08:51.114Z,99182.06
2019-01-13T20:11:18.454Z,99185.67
2019-01-13T20:13:45.643Z,99191.89
2019-01-13T20:16:12.835Z,99191.75
2019-01-13T20:18:40.622Z,99191.75
2019-01-13T20:21:07.861Z,99207.38
2019-01-13T20:23:35.091Z,99216.39
2019-01-13T20:26:02.299Z,99216.39
2019-01-13T20:28:29.514Z,99220.32
2019-01-13T20:30:56.789Z,99221.63
2019-01-13T20:33:24.127Z,99227.04
2019-01-13T20:35:51.615Z,99230.13
2019-01-13T20:38:18.935Z,99235.30
2019-01-13T20:40:46.201Z,99235.30
2019-01-13T20:43:13.404Z,99242.43
2019-01-13T20:45:41.588Z,99242.43
2019-01-13T20:48:08.769Z,99255.51
2019-01-13T20:50:36.055Z,99259.94
2019-01-13T20:53:03.430Z,99259.94
2019-01-13T20:55:30.644Z,99268.32
2019-01-13T20:57:57.857Z,99279.61
2019-01-13T21:00:25.199Z,99268.77
2019-01-13T21:02:52.456Z,99295.03
2019-01-13T21:05:26.297Z,99293.34
2019-01-13T21:07:48.971Z,99296.02
2019-01-13T21:10:16.459Z,99307.34
2019-01-13T21:12:43.700Z,99307.34
2019-01-13T21:15:13.631Z,99315.06
2019-01-13T21:17:40.913Z,99315.06
2019-01-13T21:20:08.127Z,99331.74
2019-01-13T21:22:35.419Z,99332.24
2019-01-13T21:25:02.623Z,99341.39
2019-01-13T21:27:29.973Z,99344.73
2019-01-13T21:30:01.333Z,99365.80
2019-01-13T21:32:26.311Z,99368.36
2019-01-13T21:34:53.606Z,99368.36
2019-01-13T21:37:20.783Z,99368.73
2019-01-13T21:39:48.067Z,99376.31
2019-01-13T21:42:15.264Z,99395.54
2019-01-13T21:44:42.446Z,99395.54
2019-01-13T21:47:09.680Z,99390.31
2019-01-13T21:49:36.880Z,99396.57
2019-01-13T21:52:04.183Z,99399.96
2019-01-13T21:54:31.414Z,99395.77
2019-01-13T21:56:58.612Z,99395.77
2019-01-13T21:59:25.851Z,99404.20
2019-01-13T22:01:53.087Z,99420.11
2019-01-13T22:04:20.340Z,99417.66
2019-01-13T22:06:47.796Z,99439.99
2019-01-13T22:09:15.010Z,99439.99
2019-01-13T22:11:42.284Z,99464.11
2019-01-13T22:14:09.479Z,99464.11
2019-01-13T22:16:36.697Z,99471.09
2019-01-13T22:19:03.910Z,99485.89
2019-01-13T22:21:31.255Z,99480.23
2019-01-13T22:23:58.451Z,99477.99
2019-01-13T22:26:25.634Z,99481.00
2019-01-13T22:28:52.849Z,99480.81
2019-01-13T22:31:22.447Z,99486.62
2019-01-13T22:33:49.201Z,99500.32
2019-01-13T22:36:16.549Z,99500.32
2019-01-13T22:38:43.834Z,99517.03
2019-01-13T22:41:11.641Z,99517.03
2019-01-13T22:43:38.850Z,99516.64
2019-01-13T22:46:06.149Z,99516.64
2019-01-13T22:48:34.338Z,99528.95
2019-01-13T22:51:02.043Z,99522.84
2019-01-13T22:53:29.299Z,99532.66
2019-01-13T22:55:56.521Z,99534.75
2019-01-13T22:58:23.804Z,99544.81
2019-01-13T23:01:44.383Z,99563.98
2019-01-13T23:04:13.410Z,99561.97
2019-01-13T23:06:40.659Z,99572.50
2019-01-13T23:09:08.963Z,99581.57
2019-01-13T23:11:36.374Z,99591.48
2019-01-13T23:14:03.882Z,99591.48
2019-01-13T23:16:31.130Z,99591.00
2019-01-13T23:18:58.512Z,99593.57
2019-01-13T23:21:25.726Z,99593.57
2019-01-13T23:23:53.078Z,99600.55
2019-01-13T23:26:20.623Z,99600.55
2019-01-13T23:28:47.845Z,99607.16
2019-01-13T23:31:15.090Z,99603.34
2019-01-13T23:33:42.287Z,99604.26
2019-01-13T23:36:09.527Z,99627.66
2019-01-13T23:38:36.886Z,99619.98
2019-01-13T23:41:04.381Z,99633.11
2019-01-13T23:43:31.661Z,99646.17
2019-01-13T23:45:58.842Z,99646.17
2019-01-13T23:48:26.259Z,99652.31
2019-01-13T23:50:53.623Z,99669.70
2019-01-13T23:53:20.873Z,99669.70
2019-01-13T23:55:48.086Z,99657.94
2019-01-13T23:58:15.353Z,99670.61
